Time;durP1;ratioP1;P1;durP2;ratioP2;P2;SDS_P1;SDS_P2;PMS_P1;PMS_P2;Temp;Humidity;BMP_temperature;BMP_pressure;BME280_temperature;BME280_humidity;BME280_pressure;Samples;Min_cycle;Max_cycle;Signal;HPM_P1;HPM_P2
2022/10/27 00:01:58;;;;;;;5.10;2.72;;;12.90;99.90;;;;;;5010627;28;20037;-77
2022/10/27 00:04:23;;;;;;;13.98;2.20;;;12.90;99.90;;;;;;5008800;28;20041;-77
2022/10/27 00:06:49;;;;;;;5.03;2.15;;;13.00;99.90;;;;;;5010752;28;20037;-77
2022/10/27 00:09:15;;;;;;;5.18;2.15;;;13.00;99.90;;;;;;5010690;28;20044;-77
2022/10/27 00:11:40;;;;;;;6.85;2.50;;;12.90;99.90;;;;;;5010577;28;20088;-77
2022/10/27 00:14:06;;;;;;;5.13;2.55;;;13.00;99.90;;;;;;5009979;28;20064;-77
2022/10/27 00:16:32;;;;;;;4.00;2.20;;;13.10;99.90;;;;;;5009500;28;20473;-76
2022/10/27 00:18:57;;;;;;;4.40;2.03;;;13.10;99.90;;;;;;5010579;28;20482;-77
2022/10/27 00:21:23;;;;;;;10.35;2.90;;;13.20;99.90;;;;;;5010420;28;20439;-77
2022/10/27 00:23:50;;;;;;;8.60;2.42;;;13.20;99.90;;;;;;5008656;28;20029;-77
2022/10/27 00:26:18;;;;;;;4.97;2.30;;;13.10;99.90;;;;;;5010507;28;20065;-77
2022/10/27 00:28:44;;;;;;;11.73;2.45;;;13.10;99.90;;;;;;5009237;28;20034;-77
2022/10/27 00:31:21;;;;;;;6.47;2.42;;;13.10;99.90;;;;;;5009334;28;20030;-77
2022/10/27 00:33:49;;;;;;;7.25;3.10;;;13.10;99.90;;;;;;5008805;28;20175;-77
2022/10/27 00:36:19;;;;;;;7.68;2.95;;;13.10;99.90;;;;;;5010570;28;20034;-75
2022/10/27 00:38:44;;;;;;;7.32;2.38;;;13.00;99.90;;;;;;5010622;28;20034;-76
2022/10/27 00:41:29;;;;;;;15.32;3.20;;;13.00;99.90;;;;;;5010452;28;20044;-75
2022/10/27 00:43:58;;;;;;;4.68;2.50;;;13.00;99.90;;;;;;5009589;28;20034;-76
2022/10/27 00:46:41;;;;;;;5.68;2.83;;;13.00;99.90;;;;;;4992955;28;20022;-76
2022/10/27 00:49:21;;;;;;;16.60;3.47;;;13.00;99.90;;;;;;5009368;28;20033;-76
2022/10/27 00:51:54;;;;;;;4.45;2.33;;;13.00;99.90;;;;;;5009283;28;20083;-76
2022/10/27 00:54:23;;;;;;;18.45;2.67;;;13.10;99.90;;;;;;5013202;28;20026;-76
2022/10/27 00:56:51;;;;;;;8.07;2.30;;;13.00;99.90;;;;;;5014068;28;20068;-76
2022/10/27 00:59:18;;;;;;;4.53;1.92;;;12.90;99.90;;;;;;4996551;28;20087;-76
2022/10/27 01:01:45;;;;;;;5.93;3.10;;;12.80;99.90;;;;;;4996353;28;20029;-76
2022/10/27 01:04:13;;;;;;;15.23;2.67;;;12.80;99.90;;;;;;5011750;28;20061;-76
2022/10/27 01:06:39;;;;;;;10.93;3.53;;;12.80;99.90;;;;;;5023976;28;20033;-76
2022/10/27 01:09:05;;;;;;;5.43;2.85;;;12.70;99.90;;;;;;5038002;28;20036;-77
2022/10/27 01:11:31;;;;;;;4.22;2.35;;;12.60;99.90;;;;;;5029988;28;20525;-76
2022/10/27 01:13:57;;;;;;;3.72;2.05;;;12.60;99.90;;;;;;5012665;28;20156;-76
2022/10/27 01:16:44;;;;;;;5.65;2.63;;;12.60;99.90;;;;;;5023491;28;20036;-76
2022/10/27 01:19:40;;;;;;;6.57;3.08;;;12.30;99.90;;;;;;5012256;28;20030;-77
2022/10/27 01:23:01;;;;;;;6.90;2.67;;;12.30;99.90;;;;;;5013171;28;20087;-77
2022/10/27 01:25:49;;;;;;;;;;;12.20;99.90;;;;;;4979154;28;20044;-77
2022/10/27 01:28:32;;;;;;;2.80;1.85;;;12.10;99.90;;;;;;5031915;28;20396;-77
2022/10/27 01:30:58;;;;;;;4.28;2.42;;;12.00;99.90;;;;;;5033122;28;20095;-77
2022/10/27 01:34:07;;;;;;;9.98;2.33;;;12.00;99.90;;;;;;5031799;28;20033;-77
2022/10/27 01:36:41;;;;;;;14.00;2.22;;;11.90;99.90;;;;;;5032901;28;20026;-77
2022/10/27 01:39:13;;;;;;;5.15;2.58;;;11.90;99.90;;;;;;5032774;28;20061;-77
2022/10/27 01:41:57;;;;;;;4.03;1.60;;;11.90;99.90;;;;;;5020372;28;20065;-77
2022/10/27 01:44:42;;;;;;;2.63;1.60;;;11.80;99.90;;;;;;5012375;28;20108;-76
2022/10/27 01:47:11;;;;;;;9.82;2.50;;;11.60;99.90;;;;;;5011545;28;20482;-77
2022/10/27 01:49:40;;;;;;;9.60;2.00;;;11.50;99.90;;;;;;5011524;28;20743;-77
2022/10/27 01:52:36;;;;;;;3.45;2.22;;;11.60;99.90;;;;;;5012424;28;20066;-76
2022/10/27 01:55:02;;;;;;;11.07;2.63;;;11.60;99.90;;;;;;5003410;28;20046;-77
2022/10/27 01:57:52;;;;;;;8.73;2.85;;;11.50;99.90;;;;;;5011162;28;20057;-77
2022/10/27 02:00:18;;;;;;;5.18;2.67;;;11.50;99.90;;;;;;5012587;28;20045;-77
2022/10/27 02:03:13;;;;;;;2.78;1.90;;;11.50;99.90;;;;;;5029933;28;20033;-77
2022/10/27 02:06:08;;;;;;;10.95;2.80;;;11.50;99.90;;;;;;5023891;28;20095;-77
2022/10/27 02:08:44;;;;;;;3.38;1.88;;;11.50;99.90;;;;;;5032060;28;20056;-77
2022/10/27 02:11:11;;;;;;;6.82;2.38;;;11.40;99.90;;;;;;5030906;28;20065;-77
2022/10/27 02:13:43;;;;;;;3.40;1.73;;;11.40;99.90;;;;;;5029936;28;20057;-77
2022/10/27 02:16:23;;;;;;;2.38;1.75;;;11.20;99.90;;;;;;5015682;28;20506;-77
2022/10/27 02:19:07;;;;;;;4.65;2.20;;;11.20;99.90;;;;;;5012316;28;20470;-76
2022/10/27 02:21:36;;;;;;;3.85;1.98;;;11.20;99.90;;;;;;5011022;28;20030;-77
2022/10/27 02:24:04;;;;;;;11.95;3.03;;;11.10;99.90;;;;;;5010076;28;20030;-77
2022/10/27 02:26:55;;;;;;;5.43;1.65;;;11.00;99.90;;;;;;5011012;28;20026;-77
2022/10/27 02:29:47;;;;;;;4.93;1.83;;;11.10;99.90;;;;;;5010999;28;20030;-77
2022/10/27 02:32:22;;;;;;;4.43;2.20;;;11.10;99.90;;;;;;4994108;28;20456;-77
2022/10/27 02:34:49;;;;;;;2.60;1.70;;;11.20;99.90;;;;;;5010809;28;20034;-77
2022/10/27 02:37:25;;;;;;;5.72;2.30;;;11.20;99.90;;;;;;5010740;28;20026;-77
2022/10/27 02:39:51;;;;;;;3.47;2.00;;;11.20;99.90;;;;;;5011816;28;20120;-77
2022/10/27 02:42:16;;;;;;;6.47;2.45;;;11.20;99.90;;;;;;5009794;28;20130;-77
2022/10/27 02:44:42;;;;;;;7.40;2.45;;;11.30;99.90;;;;;;5010511;28;20072;-77
2022/10/27 02:47:08;;;;;;;4.85;2.70;;;11.40;99.90;;;;;;5029920;23;20033;-75
2022/10/27 02:49:34;;;;;;;4.28;2.15;;;11.50;99.90;;;;;;5022707;28;20029;-76
2022/10/27 02:52:01;;;;;;;5.57;1.73;;;11.60;99.90;;;;;;5031583;28;20108;-75
2022/10/27 02:54:27;;;;;;;10.25;2.47;;;11.60;99.90;;;;;;5029450;28;20025;-76
2022/10/27 02:56:53;;;;;;;5.70;2.45;;;11.50;99.90;;;;;;5039110;28;20030;-76
2022/10/27 02:59:18;;;;;;;8.10;1.88;;;11.40;99.90;;;;;;5026852;28;20029;-76
2022/10/27 03:01:45;;;;;;;6.82;2.15;;;10.90;99.90;;;;;;5026835;28;20433;-76
2022/10/27 03:04:11;;;;;;;2.30;1.48;;;10.90;99.90;;;;;;5019716;28;20034;-76
2022/10/27 03:06:36;;;;;;;2.92;1.50;;;10.80;99.90;;;;;;5000321;28;20065;-76
2022/10/27 03:09:02;;;;;;;5.07;2.03;;;10.80;99.90;;;;;;5010129;28;20029;-76
2022/10/27 03:11:28;;;;;;;4.00;2.30;;;10.70;99.90;;;;;;5002959;28;20034;-76
2022/10/27 03:13:53;;;;;;;2.65;1.33;;;10.80;99.90;;;;;;4989366;28;20040;-76
2022/10/27 03:16:19;;;;;;;9.90;2.72;;;10.70;99.90;;;;;;5007703;28;20022;-76
2022/10/27 03:18:45;;;;;;;9.07;2.38;;;10.70;99.90;;;;;;5010857;28;20060;-76
2022/10/27 03:21:10;;;;;;;4.93;1.85;;;10.70;99.90;;;;;;4993449;28;20034;-76
2022/10/27 03:23:36;;;;;;;5.88;1.88;;;10.80;99.90;;;;;;4989768;28;20037;-76
2022/10/27 03:26:02;;;;;;;11.82;2.08;;;10.80;99.90;;;;;;4991502;28;20509;-76
2022/10/27 03:28:34;;;;;;;5.45;1.92;;;10.80;99.90;;;;;;4991087;28;20030;-75
2022/10/27 03:31:01;;;;;;;5.07;2.50;;;10.80;99.90;;;;;;4991527;28;20089;-75
2022/10/27 03:33:26;;;;;;;4.20;1.75;;;10.80;99.90;;;;;;4989176;28;20038;-75
2022/10/27 03:35:52;;;;;;;13.32;2.83;;;10.80;99.90;;;;;;4990093;28;20493;-75
2022/10/27 03:38:18;;;;;;;12.65;2.88;;;10.80;99.90;;;;;;5009337;28;20026;-75
2022/10/27 03:40:43;;;;;;;2.30;1.35;;;10.90;99.90;;;;;;5010618;28;20022;-75
2022/10/27 03:43:10;;;;;;;3.55;1.67;;;10.90;99.90;;;;;;5010086;28;20026;-75
2022/10/27 03:45:36;;;;;;;3.72;1.70;;;10.90;99.90;;;;;;5010902;28;20037;-76
2022/10/27 03:48:12;;;;;;;3.90;2.05;;;10.90;99.90;;;;;;5010991;28;20033;-75
2022/10/27 03:50:38;;;;;;;2.97;1.50;;;10.90;99.90;;;;;;5009442;28;20034;-75
2022/10/27 03:53:05;;;;;;;11.27;2.53;;;10.90;99.90;;;;;;5008947;28;20037;-75
2022/10/27 03:55:32;;;;;;;9.32;2.88;;;10.80;99.90;;;;;;5009219;28;20029;-75
2022/10/27 03:57:58;;;;;;;5.32;2.17;;;10.80;99.90;;;;;;5010740;28;20044;-76
2022/10/27 04:00:24;;;;;;;9.60;2.25;;;10.70;99.90;;;;;;5010234;28;20025;-75
2022/10/27 04:02:54;;;;;;;5.93;2.08;;;10.50;99.90;;;;;;5009917;28;20033;-76
2022/10/27 04:05:22;;;;;;;5.43;1.83;;;10.60;99.90;;;;;;5009135;28;20114;-76
2022/10/27 04:07:48;;;;;;;7.25;3.05;;;10.60;99.90;;;;;;5009339;28;20040;-76
2022/10/27 04:10:13;;;;;;;15.70;2.72;;;10.70;99.90;;;;;;5008820;28;20046;-76
2022/10/27 04:12:56;;;;;;;6.80;2.60;;;10.70;99.90;;;;;;4990160;28;20058;-75
2022/10/27 04:15:25;;;;;;;6.38;2.65;;;10.70;99.90;;;;;;4997977;28;20072;-76
2022/10/27 04:17:58;;;;;;;3.70;1.85;;;10.70;99.90;;;;;;5009582;28;20033;-76
2022/10/27 04:20:26;;;;;;;3.35;1.80;;;10.60;99.90;;;;;;5010506;28;20026;-75
2022/10/27 04:22:55;;;;;;;2.88;1.25;;;10.60;99.90;;;;;;5008644;28;20054;-75
2022/10/27 04:25:22;;;;;;;3.20;1.80;;;10.60;99.90;;;;;;5008849;28;20084;-75
2022/10/27 04:27:48;;;;;;;30.45;11.52;;;10.60;99.90;;;;;;5026793;28;20057;-75
2022/10/27 04:30:13;;;;;;;42.10;17.83;;;10.60;99.90;;;;;;5012765;28;20033;-75
2022/10/27 04:32:39;;;;;;;7.47;4.00;;;10.60;99.90;;;;;;5013464;28;20075;-75
2022/10/27 04:35:06;;;;;;;4.47;2.67;;;10.70;99.90;;;;;;5013896;28;20037;-76
2022/10/27 04:37:33;;;;;;;9.43;3.00;;;10.70;99.90;;;;;;5029203;28;20029;-75
2022/10/27 04:39:59;;;;;;;8.15;2.40;;;10.80;99.90;;;;;;5014071;28;20030;-75
2022/10/27 04:42:24;;;;;;;5.80;2.30;;;10.80;99.90;;;;;;5013082;28;20026;-75
2022/10/27 04:44:50;;;;;;;9.35;3.50;;;10.80;99.90;;;;;;4993138;28;20042;-76
2022/10/27 04:47:16;;;;;;;18.77;2.53;;;10.80;99.90;;;;;;4994154;28;20125;-76
2022/10/27 04:49:42;;;;;;;8.38;2.58;;;10.80;99.90;;;;;;4994233;28;20042;-76
2022/10/27 04:52:07;;;;;;;7.47;2.22;;;10.80;99.90;;;;;;4994110;28;20109;-76
2022/10/27 04:54:33;;;;;;;6.63;2.90;;;10.80;99.90;;;;;;4992405;28;20454;-76
2022/10/27 04:56:59;;;;;;;5.57;1.90;;;10.80;99.90;;;;;;4993699;28;20026;-76
2022/10/27 04:59:24;;;;;;;4.75;2.72;;;10.90;99.90;;;;;;4994338;28;20022;-76
2022/10/27 05:01:50;;;;;;;4.70;2.17;;;10.80;99.90;;;;;;4993643;28;20077;-76
2022/10/27 05:04:16;;;;;;;6.20;2.83;;;10.60;99.90;;;;;;4993172;28;20118;-76
2022/10/27 05:06:41;;;;;;;4.18;2.38;;;10.50;99.90;;;;;;4992582;28;20053;-76
2022/10/27 05:09:07;;;;;;;6.20;2.08;;;10.40;99.90;;;;;;4992546;28;20038;-76
2022/10/27 05:11:33;;;;;;;5.07;2.70;;;10.50;99.90;;;;;;5004749;28;20037;-76
2022/10/27 05:13:58;;;;;;;3.20;1.95;;;10.60;99.90;;;;;;5012570;28;20031;-76
2022/10/27 05:16:24;;;;;;;4.70;3.03;;;10.60;99.90;;;;;;5012998;28;20065;-77
2022/10/27 05:18:50;;;;;;;3.80;2.00;;;10.60;99.90;;;;;;5013441;28;20413;-77
2022/10/27 05:21:15;;;;;;;4.57;1.92;;;10.60;99.90;;;;;;5013173;28;20065;-76
2022/10/27 05:23:41;;;;;;;8.45;2.33;;;10.70;99.90;;;;;;5012450;28;20042;-76
2022/10/27 05:26:07;;;;;;;4.78;2.78;;;10.70;99.90;;;;;;5012993;28;20037;-76
2022/10/27 05:28:32;;;;;;;5.47;2.75;;;10.70;99.90;;;;;;5012688;28;20048;-76
2022/10/27 05:30:59;;;;;;;7.43;2.30;;;10.70;99.90;;;;;;5012924;28;20030;-76
2022/10/27 05:33:26;;;;;;;6.20;2.58;;;10.80;99.90;;;;;;5012041;28;20470;-76
2022/10/27 05:35:53;;;;;;;11.18;3.13;;;10.80;99.90;;;;;;5011752;28;20026;-76
2022/10/27 05:38:18;;;;;;;7.15;3.15;;;10.80;99.90;;;;;;4996413;28;20054;-76
2022/10/27 05:40:44;;;;;;;5.20;2.65;;;10.80;99.90;;;;;;4993219;28;20038;-76
2022/10/27 05:43:12;;;;;;;4.20;2.33;;;10.80;99.90;;;;;;4992094;28;20453;-76
2022/10/27 05:45:38;;;;;;;9.38;4.18;;;10.80;99.90;;;;;;4993139;28;20030;-76
2022/10/27 05:48:08;;;;;;;5.28;2.92;;;10.70;99.90;;;;;;4975340;28;20042;-76
2022/10/27 05:50:34;;;;;;;7.47;2.38;;;10.70;99.90;;;;;;4993228;28;20092;-76
2022/10/27 05:53:00;;;;;;;9.48;3.03;;;10.60;99.90;;;;;;4991895;28;20038;-76
2022/10/27 05:55:26;;;;;;;7.07;2.95;;;10.60;99.90;;;;;;4993041;28;20151;-76
2022/10/27 05:58:01;;;;;;;6.10;2.75;;;10.60;99.90;;;;;;4992675;28;20538;-76
2022/10/27 06:00:31;;;;;;;4.55;2.78;;;10.60;99.90;;;;;;4995129;28;20629;-76
2022/10/27 06:02:59;;;;;;;5.40;2.35;;;10.50;99.90;;;;;;5009615;28;20117;-76
2022/10/27 06:05:28;;;;;;;9.68;3.03;;;10.60;99.90;;;;;;4991993;28;20045;-76
2022/10/27 06:07:54;;;;;;;9.93;2.67;;;10.50;99.90;;;;;;4992840;28;20037;-76
2022/10/27 06:10:19;;;;;;;6.18;2.95;;;10.40;99.90;;;;;;4993956;28;20118;-76
2022/10/27 06:12:45;;;;;;;4.15;2.53;;;10.30;99.90;;;;;;5011569;28;20157;-76
2022/10/27 06:15:11;;;;;;;6.32;2.55;;;10.20;99.90;;;;;;5010944;28;20034;-76
2022/10/27 06:17:37;;;;;;;5.53;3.08;;;10.20;99.90;;;;;;5010637;28;20084;-76
2022/10/27 06:20:03;;;;;;;10.40;2.63;;;10.30;99.90;;;;;;5012400;28;20018;-75
2022/10/27 06:22:29;;;;;;;6.97;2.72;;;10.30;99.90;;;;;;5011270;28;20108;-75
2022/10/27 06:24:55;;;;;;;10.63;3.03;;;10.40;99.90;;;;;;5012082;28;20125;-75
2022/10/27 06:27:21;;;;;;;3.67;2.50;;;10.30;99.90;;;;;;5012000;28;20441;-75
2022/10/27 06:29:46;;;;;;;17.35;3.30;;;10.30;99.90;;;;;;5012111;28;20743;-75
2022/10/27 06:32:12;;;;;;;5.18;2.03;;;10.30;99.90;;;;;;5011221;28;20038;-75
2022/10/27 06:34:38;;;;;;;10.77;2.88;;;10.30;99.90;;;;;;5010194;28;20025;-76
2022/10/27 06:37:04;;;;;;;9.32;4.18;;;10.30;99.90;;;;;;5011856;28;20047;-77
2022/10/27 06:39:31;;;;;;;8.35;3.63;;;10.30;99.90;;;;;;5010458;28;20494;-77
2022/10/27 06:41:57;;;;;;;9.50;3.05;;;10.30;99.90;;;;;;5010482;28;20379;-77
2022/10/27 06:44:24;;;;;;;4.28;2.00;;;10.30;99.90;;;;;;5009811;28;20406;-77
2022/10/27 06:46:50;;;;;;;10.73;4.93;;;10.30;99.90;;;;;;5010456;28;20041;-77
2022/10/27 06:49:16;;;;;;;9.43;2.03;;;10.30;99.90;;;;;;5010455;28;20033;-77
2022/10/27 06:51:42;;;;;;;4.57;2.53;;;10.30;99.90;;;;;;5011323;28;20056;-77
2022/10/27 06:54:07;;;;;;;8.35;3.13;;;10.40;99.90;;;;;;5010681;28;20041;-77
2022/10/27 06:56:33;;;;;;;8.80;3.13;;;10.50;99.90;;;;;;5010339;28;20045;-77
2022/10/27 06:59:00;;;;;;;9.65;3.97;;;10.50;99.90;;;;;;5011827;28;20022;-77
2022/10/27 07:01:26;;;;;;;12.02;3.58;;;10.60;99.90;;;;;;5010705;28;20818;-77
2022/10/27 07:03:52;;;;;;;8.52;4.55;;;10.80;99.90;;;;;;4992895;28;20042;-77
2022/10/27 07:06:18;;;;;;;8.35;3.17;;;10.90;99.90;;;;;;5009901;28;20490;-77
2022/10/27 07:08:43;;;;;;;13.95;4.55;;;11.00;99.90;;;;;;5011256;28;20442;-77
2022/10/27 07:11:09;;;;;;;9.23;3.90;;;11.10;99.90;;;;;;5011211;28;20045;-78
2022/10/27 07:13:35;;;;;;;10.68;3.72;;;11.20;99.90;;;;;;5010327;28;20393;-77
2022/10/27 07:16:01;;;;;;;9.90;4.45;;;11.30;99.90;;;;;;5011231;28;20037;-77
2022/10/27 07:18:27;;;;;;;15.82;5.22;;;11.40;99.90;;;;;;5011031;28;20087;-77
2022/10/27 07:20:53;;;;;;;14.02;5.50;;;11.50;99.90;;;;;;5011291;28;20470;-77
2022/10/27 07:23:19;;;;;;;10.82;5.95;;;11.60;99.90;;;;;;5010382;28;20049;-77
2022/10/27 07:25:49;;;;;;;16.23;5.07;;;11.70;99.90;;;;;;5009728;28;20492;-77
2022/10/27 07:28:16;;;;;;;18.33;4.70;;;11.70;99.90;;;;;;5009720;28;20529;-77
2022/10/27 07:30:43;;;;;;;8.80;4.90;;;11.80;99.90;;;;;;5009708;28;20041;-77
2022/10/27 07:33:10;;;;;;;13.70;5.50;;;11.80;99.90;;;;;;5010168;28;20029;-77
2022/10/27 07:35:37;;;;;;;10.50;5.15;;;11.90;99.90;;;;;;5010669;28;20022;-77
2022/10/27 07:38:03;;;;;;;11.00;4.63;;;11.90;99.90;;;;;;5009693;28;20037;-77
2022/10/27 07:40:29;;;;;;;20.67;6.47;;;12.00;99.90;;;;;;5011085;28;20065;-77
2022/10/27 07:42:56;;;;;;;11.82;5.10;;;12.00;99.90;;;;;;5010015;28;20065;-77
2022/10/27 07:45:24;;;;;;;11.82;4.70;;;12.20;99.90;;;;;;5009994;28;20057;-77
2022/10/27 07:47:53;;;;;;;21.30;6.32;;;12.30;99.90;;;;;;5010886;28;20041;-77
2022/10/27 07:50:21;;;;;;;43.70;17.08;;;12.40;99.90;;;;;;5011031;28;20509;-77
2022/10/27 07:52:50;;;;;;;21.60;7.20;;;12.40;99.90;;;;;;5008719;28;20042;-77
2022/10/27 07:55:20;;;;;;;24.13;6.55;;;12.40;99.90;;;;;;5010507;28;20523;-77
2022/10/27 07:57:46;;;;;;;15.73;6.82;;;12.60;99.90;;;;;;5010592;28;20036;-77
2022/10/27 08:00:17;;;;;;;18.15;5.68;;;12.60;99.90;;;;;;5011195;28;20026;-77
2022/10/27 08:02:43;;;;;;;16.13;5.97;;;12.70;99.90;;;;;;5011364;28;20041;-78
2022/10/27 08:05:10;;;;;;;17.70;6.50;;;12.80;99.90;;;;;;5014273;28;20076;-77
2022/10/27 08:07:37;;;;;;;14.93;5.05;;;12.70;99.90;;;;;;5014487;28;20519;-77
2022/10/27 08:10:04;;;;;;;14.55;5.63;;;12.70;99.90;;;;;;5013298;28;20125;-77
2022/10/27 08:12:29;;;;;;;9.50;4.38;;;12.80;99.90;;;;;;4995116;28;20066;-77
2022/10/27 08:14:55;;;;;;;9.00;3.95;;;12.90;99.90;;;;;;4995005;28;20057;-77
2022/10/27 08:17:21;;;;;;;10.90;4.45;;;12.90;99.90;;;;;;4994900;28;20153;-77
2022/10/27 08:19:47;;;;;;;9.98;4.95;;;12.90;99.90;;;;;;4994753;28;20710;-77
2022/10/27 08:22:12;;;;;;;18.05;4.95;;;13.10;99.90;;;;;;4994613;28;20033;-77
2022/10/27 08:24:38;;;;;;;11.00;4.50;;;13.30;99.90;;;;;;4994240;28;20030;-78
2022/10/27 08:27:04;;;;;;;11.90;4.90;;;13.10;99.90;;;;;;4993385;28;20034;-77
2022/10/27 08:29:30;;;;;;;8.73;4.00;;;13.00;99.90;;;;;;4993391;28;20049;-77
2022/10/27 08:31:55;;;;;;;11.55;5.10;;;13.20;99.90;;;;;;4994873;28;20045;-77
2022/10/27 08:34:21;;;;;;;13.65;5.53;;;13.20;99.90;;;;;;4993861;28;20069;-77
2022/10/27 08:36:46;;;;;;;17.90;5.32;;;13.30;99.90;;;;;;4993092;28;20556;-77
2022/10/27 08:39:13;;;;;;;24.63;4.85;;;13.20;99.90;;;;;;4994466;28;20061;-77
2022/10/27 08:42:11;;;;;;;13.02;5.57;;;13.20;99.90;;;;;;4993306;28;20092;-77
2022/10/27 08:44:45;;;;;;;12.15;5.60;;;13.30;99.90;;;;;;4992838;28;20573;-77
2022/10/27 08:47:23;;;;;;;13.90;4.88;;;13.30;99.90;;;;;;5009447;23;20042;-70
2022/10/27 08:49:55;;;;;;;10.95;5.60;;;13.60;99.90;;;;;;5011533;28;20487;-70
2022/10/27 08:52:52;;;;;;;19.52;6.22;;;13.60;99.90;;;;;;5013205;28;20061;-70
2022/10/27 08:55:23;;;;;;;20.02;6.63;;;13.70;99.90;;;;;;5012881;28;20113;-70
2022/10/27 08:58:16;;;;;;;17.67;6.78;;;13.80;99.90;;;;;;5013748;28;20022;-70
2022/10/27 09:00:58;;;;;;;13.23;6.25;;;13.90;99.90;;;;;;5013411;28;20096;-70
2022/10/27 09:03:59;;;;;;;24.30;6.25;;;14.00;99.90;;;;;;5027716;28;20366;-70
2022/10/27 09:07:11;;;;;;;12.77;6.13;;;14.20;99.90;;;;;;5029088;28;20120;-70
2022/10/27 09:10:29;;;;;;;21.85;7.20;;;14.30;99.90;;;;;;5013395;28;20045;-70
2022/10/27 09:13:19;;;;;;;17.08;7.50;;;14.50;99.90;;;;;;4976233;28;20049;-69
2022/10/27 09:15:59;;;;;;;19.50;7.70;;;14.70;99.90;;;;;;4992530;28;20034;-70
2022/10/27 09:18:42;;;;;;;18.65;7.50;;;14.90;99.90;;;;;;4992589;28;20080;-70
2022/10/27 09:21:23;;;;;;;15.88;6.97;;;15.00;99.90;;;;;;4992720;28;20642;-70
2022/10/27 09:23:58;;;;;;;16.35;6.05;;;15.20;99.90;;;;;;4992733;28;20402;-70
2022/10/27 09:26:31;;;;;;;18.15;8.50;;;15.40;99.90;;;;;;4992459;28;20030;-70
2022/10/27 09:29:09;;;;;;;10.90;5.45;;;15.60;99.90;;;;;;4976622;28;20062;-70
2022/10/27 09:32:04;;;;;;;19.60;7.03;;;15.70;99.90;;;;;;4992425;28;20026;-70
2022/10/27 09:34:43;;;;;;;12.95;6.63;;;15.90;99.90;;;;;;4992633;28;20026;-70
2022/10/27 09:37:19;;;;;;;12.50;6.25;;;16.00;99.90;;;;;;4992051;28;20026;-70
2022/10/27 09:39:51;;;;;;;22.85;6.45;;;15.90;99.90;;;;;;4992339;28;20121;-70
2022/10/27 09:42:17;;;;;;;16.30;5.88;;;15.90;99.90;;;;;;4991337;28;20030;-70
2022/10/27 09:45:17;;;;;;;16.60;6.38;;;16.20;99.90;;;;;;4991983;28;20046;-70
2022/10/27 09:47:49;;;;;;;19.15;6.75;;;16.50;99.90;;;;;;4992100;28;20092;-70
2022/10/27 09:50:35;;;;;;;16.95;5.85;;;17.00;99.90;;;;;;4991882;28;20038;-70
2022/10/27 09:53:02;;;;;;;15.32;5.60;;;17.70;99.90;;;;;;4991219;28;20586;-70
2022/10/27 09:55:51;;;;;;;16.20;4.88;;;19.50;99.90;;;;;;4992069;28;20031;-70
2022/10/27 09:58:19;;;;;;;16.80;5.75;;;19.60;99.90;;;;;;4991727;28;20033;-70
2022/10/27 10:00:54;;;;;;;16.65;6.15;;;19.40;99.90;;;;;;4991585;28;20379;-70
2022/10/27 10:03:21;;;;;;;11.50;4.97;;;19.40;99.90;;;;;;4990974;28;20035;-70
2022/10/27 10:05:59;;;;;;;9.60;4.65;;;19.00;99.90;;;;;;4992910;28;20038;-70
2022/10/27 10:08:34;;;;;;;11.65;4.20;;;19.00;99.90;;;;;;4991795;28;20030;-70
2022/10/27 10:11:03;;;;;;;11.30;4.57;;;19.40;99.90;;;;;;4993964;28;20364;-70
2022/10/27 10:13:37;;;;;;;12.52;5.25;;;19.70;99.90;;;;;;4991842;28;20030;-70
2022/10/27 10:16:09;;;;;;;7.65;3.10;;;19.10;99.90;;;;;;4991616;28;20121;-70
2022/10/27 10:18:38;;;;;;;9.85;2.63;;;18.70;99.90;;;;;;4992631;28;20050;-70
2022/10/27 10:21:10;;;;;;;5.75;3.08;;;18.90;99.90;;;;;;4992430;28;20023;-70
2022/10/27 10:23:50;;;;;;;5.97;3.30;;;19.10;99.90;;;;;;4990779;28;20034;-70
2022/10/27 10:26:28;;;;;;;9.05;3.28;;;19.40;99.90;;;;;;4990298;28;20494;-70
2022/10/27 10:29:06;;;;;;;9.20;4.38;;;19.60;99.90;;;;;;4990920;28;20478;-71
2022/10/27 10:31:32;;;;;;;10.73;3.85;;;20.60;99.90;;;;;;4991300;28;20077;-71
2022/10/27 10:34:25;;;;;;;10.40;4.13;;;20.30;99.90;;;;;;4973929;28;20103;-71
2022/10/27 10:36:51;;;;;;;9.63;4.38;;;20.00;99.90;;;;;;4991376;28;20088;-71
2022/10/27 10:39:27;;;;;;;11.15;4.47;;;21.10;99.90;;;;;;4992165;28;20034;-70
2022/10/27 10:42:14;;;;;;;6.30;3.47;;;20.40;99.90;;;;;;4992184;28;20030;-71
2022/10/27 10:44:40;;;;;;;7.18;3.65;;;20.70;99.90;;;;;;4991818;28;20026;-71
2022/10/27 10:47:29;;;;;;;9.30;4.28;;;20.70;99.90;;;;;;4990830;28;20026;-71
2022/10/27 10:50:01;;;;;;;9.88;4.35;;;21.30;99.90;;;;;;4992079;28;20030;-71
2022/10/27 10:52:37;;;;;;;13.18;3.88;;;21.30;99.90;;;;;;4990922;28;20513;-69
2022/10/27 10:55:17;;;;;;;9.25;4.20;;;23.00;99.90;;;;;;4990657;28;20379;-69
2022/10/27 10:57:45;;;;;;;10.23;3.27;;;21.60;99.90;;;;;;4991006;28;20050;-70
2022/10/27 11:00:16;;;;;;;12.35;4.15;;;21.00;99.90;;;;;;4995414;28;20037;-69
2022/10/27 11:03:02;;;;;;;10.48;3.55;;;21.30;99.90;;;;;;5009387;28;20030;-69
2022/10/27 11:05:34;;;;;;;9.02;3.33;;;22.10;99.90;;;;;;5011435;28;20444;-69
2022/10/27 11:08:01;;;;;;;11.05;3.63;;;22.10;99.90;;;;;;5010380;28;20026;-69
2022/10/27 11:10:38;;;;;;;9.02;2.80;;;21.80;99.90;;;;;;5009210;28;20104;-69
2022/10/27 11:13:10;;;;;;;6.82;2.38;;;21.70;99.90;;;;;;4989461;28;20143;-70
2022/10/27 11:16:01;;;;;;;4.15;1.95;;;22.10;99.90;;;;;;4990362;28;20056;-70
2022/10/27 11:18:59;;;;;;;2.70;1.73;;;22.30;99.90;;;;;;4974374;28;20030;-70
2022/10/27 11:21:55;;;;;;;2.67;1.60;;;22.80;99.90;;;;;;4990274;28;20034;-70
2022/10/27 11:24:52;;;;;;;12.85;2.05;;;22.70;99.90;;;;;;4990027;28;20509;-70
2022/10/27 11:27:26;;;;;;;6.65;1.38;;;22.90;99.90;;;;;;4990189;28;20046;-70
2022/10/27 11:30:13;;;;;;;5.47;1.45;;;23.30;99.90;;;;;;4990047;28;20113;-69
2022/10/27 11:33:14;;;;;;;2.40;0.80;;;23.10;99.90;;;;;;4990883;28;20066;-70
2022/10/27 11:36:06;;;;;;;3.88;1.02;;;23.70;99.90;;;;;;4991209;28;20080;-70
2022/10/27 11:38:58;;;;;;;6.40;1.45;;;23.90;99.90;;;;;;4991328;28;20038;-70
2022/10/27 11:41:32;;;;;;;4.40;0.85;;;22.90;99.90;;;;;;4991222;28;20054;-70
2022/10/27 11:44:08;;;;;;;3.83;1.30;;;24.30;99.90;;;;;;4990736;28;20044;-70
2022/10/27 11:46:42;;;;;;;5.10;1.30;;;26.70;98.70;;;;;;4989942;28;20038;-70
2022/10/27 11:49:23;;;;;;;5.10;1.10;;;26.10;97.50;;;;;;4991045;28;20034;-70
2022/10/27 11:51:55;;;;;;;2.55;1.50;;;25.00;99.90;;;;;;4989748;28;20030;-71
2022/10/27 11:54:21;;;;;;;5.85;1.10;;;26.70;97.50;;;;;;4989330;28;20487;-70
2022/10/27 11:57:15;;;;;;;6.50;1.25;;;27.40;95.50;;;;;;4989685;28;20070;-70
2022/10/27 12:00:24;;;;;;;3.95;1.20;;;25.40;99.50;;;;;;4990045;28;20034;-70
2022/10/27 12:03:39;;;;;;;3.80;1.00;;;27.50;96.00;;;;;;4986170;28;20042;-71
2022/10/27 12:06:26;;;;;;;3.63;1.08;;;26.20;98.40;;;;;;4990763;28;20030;-71
2022/10/27 12:09:17;;;;;;;3.63;0.98;;;26.50;97.40;;;;;;4991052;28;20069;-70
2022/10/27 12:12:14;;;;;;;3.08;1.05;;;25.50;98.40;;;;;;5002981;28;20046;-70
2022/10/27 12:15:07;;;;;;;9.57;1.83;;;25.70;99.00;;;;;;4994510;28;20112;-70
2022/10/27 12:18:05;;;;;;;2.95;1.27;;;25.00;99.90;;;;;;5009178;28;20030;-70
2022/10/27 12:21:09;;;;;;;2.10;1.20;;;27.10;96.60;;;;;;5009194;28;20026;-70
2022/10/27 12:24:09;;;;;;;2.03;1.10;;;25.90;97.50;;;;;;5014625;28;20184;-70
2022/10/27 12:26:48;;;;;;;3.38;1.17;;;25.60;98.30;;;;;;5009340;28;20109;-70
2022/10/27 12:29:16;;;;;;;3.50;1.42;;;26.10;97.30;;;;;;5009198;28;20041;-71
2022/10/27 12:31:54;;;;;;;4.88;0.90;;;26.20;96.60;;;;;;5008977;28;20030;-71
2022/10/27 12:34:27;;;;;;;1.95;0.75;;;26.80;95.60;;;;;;5008590;28;20375;-71
2022/10/27 12:37:21;;;;;;;4.47;1.30;;;26.80;96.50;;;;;;5008997;28;20077;-71
2022/10/27 12:40:26;;;;;;;4.43;1.30;;;26.80;96.40;;;;;;5009265;28;20038;-72
2022/10/27 12:43:31;;;;;;;2.45;0.88;;;26.10;97.00;;;;;;4986409;28;20045;-71
2022/10/27 12:46:42;;;;;;;3.08;1.08;;;25.10;99.10;;;;;;5009981;28;20486;-71
2022/10/27 12:49:43;;;;;;;3.60;1.35;;;25.60;98.80;;;;;;5011947;28;20069;-72
2022/10/27 12:52:22;;;;;;;2.53;1.13;;;25.70;98.20;;;;;;5013485;28;20497;-71
2022/10/27 12:55:11;;;;;;;6.03;1.25;;;25.10;98.80;;;;;;5013502;28;20115;-72
2022/10/27 12:57:58;;;;;;;3.77;1.20;;;25.50;98.50;;;;;;5012526;28;20507;-72
2022/10/27 13:00:25;;;;;;;3.92;1.48;;;25.90;98.70;;;;;;5012569;28;20105;-72
2022/10/27 13:03:19;;;;;;;13.55;4.78;;;25.10;99.20;;;;;;5011774;28;20033;-71
2022/10/27 13:06:24;;;;;;;2.30;1.15;;;24.90;99.20;;;;;;5012020;28;20068;-72
2022/10/27 13:09:24;;;;;;;7.95;1.42;;;26.00;99.00;;;;;;5013493;28;20038;-72
2022/10/27 13:12:07;;;;;;;3.90;1.75;;;24.40;99.90;;;;;;4969152;28;20073;-72
2022/10/27 13:14:57;;;;;;;4.40;1.38;;;24.80;99.90;;;;;;4992081;28;20030;-71
2022/10/27 13:18:03;;;;;;;2.47;1.27;;;25.20;99.90;;;;;;4993471;28;20490;-71